createdAt,value
2023-04-22T00:01:28.876Z,8.32
2023-04-22T00:03:56.797Z,8.43
2023-04-22T00:06:24.686Z,8.40
2023-04-22T00:08:52.218Z,8.20
2023-04-22T00:11:19.519Z,8.68
2023-04-22T00:13:46.874Z,8.20
2023-04-22T00:16:14.275Z,8.43
2023-04-22T00:18:41.882Z,8.65
2023-04-22T00:21:09.187Z,8.55
2023-04-22T00:23:36.456Z,8.57
2023-04-22T00:26:04.245Z,8.52
2023-04-22T00:28:31.610Z,8.43
2023-04-22T00:30:59.101Z,8.00
2023-04-22T00:33:26.591Z,8.52
2023-04-22T00:35:54.705Z,7.82
2023-04-22T00:38:23.376Z,8.00
2023-04-22T00:40:50.871Z,8.88
2023-04-22T00:43:19.044Z,9.23
2023-04-22T00:45:47.503Z,8.48
2023-04-22T00:48:15.078Z,8.13
2023-04-22T00:50:42.457Z,8.48
2023-04-22T00:53:09.798Z,8.75
2023-04-22T00:55:37.314Z,8.57
2023-04-22T00:58:05.318Z,8.57
2023-04-22T01:00:34.425Z,7.70
2023-04-22T01:03:02.518Z,8.35
2023-04-22T01:05:32.200Z,9.00
2023-04-22T01:08:00.617Z,8.65
2023-04-22T01:10:27.995Z,9.63
2023-04-22T01:12:55.389Z,8.88
2023-04-22T01:15:22.872Z,9.13
2023-04-22T01:17:50.927Z,9.15
2023-04-22T01:20:19.462Z,9.07
2023-04-22T01:22:49.071Z,9.70
2023-04-22T01:25:16.696Z,9.00
2023-04-22T01:27:44.554Z,9.15
2023-04-22T01:30:12.407Z,9.80
2023-04-22T01:32:40.567Z,9.27
2023-04-22T01:35:09.216Z,9.75
2023-04-22T01:37:36.868Z,9.77
2023-04-22T01:40:04.997Z,8.95
2023-04-22T01:42:32.934Z,9.82
2023-04-22T01:45:00.348Z,9.23
2023-04-22T01:47:27.777Z,10.07
2023-04-22T01:49:55.195Z,8.93
2023-04-22T01:52:22.758Z,9.57
2023-04-22T01:54:50.132Z,9.10
2023-04-22T01:57:17.661Z,9.20
2023-04-22T01:59:44.991Z,10.30
2023-04-22T02:02:12.361Z,9.25
2023-04-22T02:04:39.751Z,9.90
2023-04-22T02:07:07.157Z,9.35
2023-04-22T02:09:38.686Z,10.35
2023-04-22T02:12:06.436Z,9.32
2023-04-22T02:14:33.766Z,9.93
2023-04-22T02:17:03.827Z,10.27
2023-04-22T02:19:31.199Z,10.63
2023-04-22T02:21:58.572Z,10.18
2023-04-22T02:24:26.738Z,10.23
2023-04-22T02:26:54.093Z,10.73
2023-04-22T02:29:21.659Z,10.30
2023-04-22T02:31:49.085Z,10.02
2023-04-22T02:34:17.159Z,10.57
2023-04-22T02:36:44.462Z,10.35
2023-04-22T02:39:11.827Z,9.93
2023-04-22T02:41:39.252Z,10.52
2023-04-22T02:44:06.816Z,9.65
2023-04-22T02:46:34.244Z,9.98
2023-04-22T02:49:01.916Z,10.27
2023-04-22T02:51:29.308Z,9.80
2023-04-22T02:53:56.610Z,10.82
2023-04-22T02:56:23.936Z,10.10
2023-04-22T02:58:51.250Z,10.30
2023-04-22T03:01:18.720Z,10.90
2023-04-22T03:03:47.169Z,11.45
2023-04-22T03:06:20.896Z,10.57
2023-04-22T03:08:49.083Z,10.60
2023-04-22T03:11:16.386Z,10.70
2023-04-22T03:13:43.717Z,10.63
2023-04-22T03:16:11.084Z,11.15
2023-04-22T03:18:39.300Z,11.02
2023-04-22T03:21:08.448Z,10.65
2023-04-22T03:23:35.785Z,10.35
2023-04-22T03:26:03.308Z,10.50
2023-04-22T03:28:30.731Z,10.02
2023-04-22T03:30:58.033Z,10.40
2023-04-22T03:33:25.770Z,11.38
2023-04-22T03:35:57.675Z,11.15
2023-04-22T03:38:25.283Z,11.07
2023-04-22T03:40:52.539Z,11.43
2023-04-22T03:43:36.622Z,10.45
2023-04-22T03:46:08.559Z,11.32
2023-04-22T03:48:39.580Z,10.30
2023-04-22T03:51:12.219Z,10.35
2023-04-22T03:53:41.353Z,9.77
2023-04-22T03:56:11.609Z,10.38
2023-04-22T03:58:44.379Z,10.65
2023-04-22T04:01:11.834Z,10.30
2023-04-22T04:03:41.064Z,11.45
2023-04-22T04:06:09.980Z,9.63
2023-04-22T04:08:37.639Z,10.85
2023-04-22T04:11:05.454Z,10.85
2023-04-22T04:13:32.950Z,11.43
2023-04-22T04:16:15.331Z,11.23
2023-04-22T04:18:44.406Z,10.88
2023-04-22T04:21:12.711Z,11.25
2023-04-22T04:23:47.525Z,10.43
2023-04-22T04:26:15.460Z,11.15
2023-04-22T04:28:47.267Z,11.10
2023-04-22T04:31:16.280Z,10.95
2023-04-22T04:33:43.712Z,10.40
2023-04-22T04:36:11.626Z,11.10
2023-04-22T04:38:39.328Z,10.05
2023-04-22T04:41:09.646Z,10.23
2023-04-22T04:43:37.669Z,10.38
2023-04-22T04:46:16.709Z,10.48
2023-04-22T04:48:46.500Z,11.40
2023-04-22T04:51:14.957Z,10.32
2023-04-22T04:53:51.232Z,11.32
2023-04-22T04:56:19.307Z,10.00
2023-04-22T04:58:47.592Z,10.02
2023-04-22T05:01:21.027Z,10.25
2023-04-22T05:03:50.014Z,9.90
2023-04-22T05:06:20.011Z,10.00
2023-04-22T05:08:58.646Z,9.73
2023-04-22T05:11:29.824Z,10.20
2023-04-22T05:14:00.306Z,10.05
2023-04-22T05:16:33.453Z,9.02
2023-04-22T05:19:03.255Z,9.75
2023-04-22T05:21:33.444Z,10.75
2023-04-22T05:24:01.298Z,8.32
2023-04-22T05:26:29.189Z,9.10
2023-04-22T05:28:58.108Z,8.73
2023-04-22T05:31:25.553Z,8.60
2023-04-22T05:33:57.138Z,8.75
2023-04-22T05:36:29.802Z,7.43
2023-04-22T05:38:58.958Z,8.63
2023-04-22T05:41:28.355Z,8.63
2023-04-22T05:43:58.063Z,7.82
2023-04-22T05:46:25.826Z,9.32
2023-04-22T05:48:54.834Z,8.10
2023-04-22T05:51:43.225Z,8.00
2023-04-22T05:54:13.029Z,9.45
2023-04-22T05:56:44.210Z,8.00
2023-04-22T05:59:12.925Z,7.75
2023-04-22T06:01:40.218Z,7.13
2023-04-22T06:04:11.662Z,6.97
2023-04-22T06:06:39.846Z,7.82
2023-04-22T06:09:07.415Z,6.88
2023-04-22T06:11:34.821Z,7.25
2023-04-22T06:14:02.281Z,6.60
2023-04-22T06:16:30.542Z,7.50
2023-04-22T06:18:57.954Z,7.65
2023-04-22T06:21:25.894Z,7.10
2023-04-22T06:23:53.156Z,7.60
2023-04-22T06:26:21.689Z,7.32
2023-04-22T06:28:49.282Z,6.40
2023-04-22T06:31:21.189Z,7.90
2023-04-22T06:33:49.072Z,7.00
2023-04-22T06:36:16.389Z,7.15
2023-04-22T06:38:46.425Z,7.38
2023-04-22T06:41:25.784Z,8.00
2023-04-22T06:43:58.530Z,7.80
2023-04-22T06:46:45.054Z,7.38
2023-04-22T06:49:23.677Z,6.65
2023-04-22T06:52:03.086Z,7.00
2023-04-22T06:54:31.844Z,7.20
2023-04-22T06:57:00.018Z,6.50
2023-04-22T06:59:27.176Z,6.53
2023-04-22T07:01:54.351Z,6.40
2023-04-22T07:04:22.011Z,5.90
2023-04-22T07:06:49.604Z,7.00
2023-04-22T07:09:17.254Z,6.00
2023-04-22T07:11:44.570Z,6.60
2023-04-22T07:14:18.587Z,6.60
2023-04-22T07:16:46.636Z,6.55
2023-04-22T07:19:13.706Z,6.47
2023-04-22T07:21:40.642Z,5.78
2023-04-22T07:24:11.876Z,6.43
2023-04-22T07:26:43.757Z,5.90
2023-04-22T07:29:13.145Z,6.47
2023-04-22T07:31:43.626Z,5.55
2023-04-22T07:34:12.847Z,6.55
2023-04-22T07:36:40.385Z,6.32
2023-04-22T07:39:07.913Z,6.20
2023-04-22T07:41:34.898Z,5.78
2023-04-22T07:44:05.338Z,5.90
2023-04-22T07:46:32.401Z,5.90
2023-04-22T07:48:59.531Z,5.32
2023-04-22T07:51:26.431Z,5.88
2023-04-22T07:53:53.315Z,6.25
2023-04-22T07:56:20.927Z,5.57
2023-04-22T07:58:49.469Z,5.88
2023-04-22T08:01:18.711Z,6.20
2023-04-22T08:03:47.110Z,6.10
2023-04-22T08:06:14.228Z,6.00
2023-04-22T08:08:41.155Z,5.88
2023-04-22T08:11:08.564Z,5.63
2023-04-22T08:13:35.511Z,6.18
2023-04-22T08:16:06.721Z,6.28
2023-04-22T08:18:33.843Z,6.15
2023-04-22T08:21:00.767Z,5.65
2023-04-22T08:23:27.848Z,6.38
2023-04-22T08:26:00.809Z,5.88
2023-04-22T08:28:29.026Z,5.32
2023-04-22T08:30:55.927Z,6.30
2023-04-22T08:33:23.293Z,6.00
2023-04-22T08:35:51.419Z,5.88
2023-04-22T08:38:18.646Z,5.75
2023-04-22T08:40:46.714Z,5.90
2023-04-22T08:43:14.105Z,5.72
2023-04-22T08:45:42.069Z,6.43
2023-04-22T08:48:13.764Z,5.30
2023-04-22T08:50:41.495Z,5.28
2023-04-22T08:53:08.542Z,5.05
2023-04-22T08:55:36.930Z,6.03
2023-04-22T08:58:06.032Z,6.00
2023-04-22T09:00:34.589Z,5.60
2023-04-22T09:03:07.881Z,5.78
2023-04-22T09:05:39.573Z,5.97
2023-04-22T09:08:07.935Z,6.05
2023-04-22T09:10:39.350Z,6.30
2023-04-22T09:13:07.192Z,5.75
2023-04-22T09:15:34.294Z,6.03
2023-04-22T09:18:06.386Z,5.35
2023-04-22T09:20:33.647Z,5.30
2023-04-22T09:23:07.465Z,5.43
2023-04-22T09:25:37.690Z,5.85
2023-04-22T09:28:04.994Z,5.63
2023-04-22T09:30:35.827Z,5.45
2023-04-22T09:33:07.462Z,5.32
2023-04-22T09:35:38.000Z,5.50
2023-04-22T09:38:08.251Z,5.28
2023-04-22T09:40:38.149Z,4.68
2023-04-22T09:43:09.471Z,6.07
2023-04-22T09:45:43.016Z,5.25
2023-04-22T09:48:13.717Z,4.70
2023-04-22T09:50:46.803Z,4.80
2023-04-22T09:53:18.190Z,4.38
2023-04-22T09:55:50.742Z,4.47
2023-04-22T09:58:20.743Z,5.07
2023-04-22T10:00:57.263Z,4.35
2023-04-22T10:03:24.821Z,4.20
2023-04-22T10:05:52.286Z,4.30
2023-04-22T10:08:19.524Z,4.00
2023-04-22T10:10:47.074Z,4.43
2023-04-22T10:13:14.446Z,4.20
2023-04-22T10:15:48.121Z,4.68
2023-04-22T10:18:27.045Z,3.80
2023-04-22T10:20:59.953Z,4.18
2023-04-22T10:23:32.939Z,4.40
2023-04-22T10:26:00.292Z,4.28
2023-04-22T10:28:30.227Z,4.10
2023-04-22T10:31:06.832Z,4.10
2023-04-22T10:33:39.256Z,3.42
2023-04-22T10:36:20.976Z,4.18
2023-04-22T10:38:54.922Z,4.07
2023-04-22T10:41:28.896Z,3.60
2023-04-22T10:44:10.681Z,3.70
2023-04-22T10:46:42.591Z,3.88
2023-04-22T10:49:20.932Z,4.05
2023-04-22T10:51:49.320Z,3.42
2023-04-22T10:54:37.569Z,3.95
2023-04-22T10:57:14.412Z,4.28
2023-04-22T10:59:52.534Z,4.70
2023-04-22T11:02:22.382Z,4.70
2023-04-22T11:04:52.225Z,4.10
2023-04-22T11:07:30.070Z,3.47
2023-04-22T11:10:07.509Z,4.85
2023-04-22T11:12:42.168Z,4.18
2023-04-22T11:15:17.833Z,4.50
2023-04-22T11:17:48.053Z,3.72
2023-04-22T11:20:17.484Z,4.40
2023-04-22T11:22:56.623Z,3.92
2023-04-22T11:25:26.300Z,3.67
2023-04-22T11:27:54.826Z,3.83
2023-04-22T11:30:25.318Z,4.45
2023-04-22T11:32:59.751Z,3.80
2023-04-22T11:35:33.367Z,4.38
2023-04-22T11:38:03.813Z,4.25
2023-04-22T11:40:39.035Z,3.92
2023-04-22T11:43:09.444Z,3.72
2023-04-22T11:45:39.103Z,4.05
2023-04-22T11:48:09.217Z,4.07
2023-04-22T11:50:39.788Z,3.65
2023-04-22T11:53:19.107Z,4.10
2023-04-22T11:55:51.030Z,3.97
2023-04-22T11:58:27.363Z,4.55
2023-04-22T12:01:00.923Z,3.50
2023-04-22T12:03:31.754Z,3.40
2023-04-22T12:06:05.077Z,4.22
2023-04-22T12:08:42.411Z,4.10
2023-04-22T12:11:11.990Z,4.10
2023-04-22T12:13:38.955Z,4.13
2023-04-22T12:16:12.467Z,3.63
2023-04-22T12:18:51.097Z,3.88
2023-04-22T12:21:23.792Z,3.22
2023-04-22T12:23:57.583Z,3.17
2023-04-22T12:26:29.590Z,3.97
2023-04-22T12:29:01.566Z,3.22
2023-04-22T12:31:28.627Z,3.75
2023-04-22T12:33:56.753Z,3.67
2023-04-22T12:36:25.173Z,3.38
2023-04-22T12:38:52.602Z,3.70
2023-04-22T12:41:19.781Z,3.80
2023-04-22T12:43:46.861Z,3.83
2023-04-22T12:46:14.414Z,3.50
2023-04-22T12:48:42.970Z,3.88
2023-04-22T12:51:09.923Z,3.50
2023-04-22T12:53:37.489Z,3.75
2023-04-22T12:56:04.644Z,3.60
2023-04-22T12:58:31.957Z,3.50
2023-04-22T13:00:59.908Z,3.80
2023-04-22T13:03:27.151Z,3.42
2023-04-22T13:05:55.465Z,3.50
2023-04-22T13:11:22.347Z,3.63
2023-04-22T13:13:49.545Z,2.90
2023-04-22T13:16:19.809Z,3.50
2023-04-22T13:18:46.827Z,3.50
2023-04-22T13:21:15.219Z,3.72
2023-04-22T13:23:42.287Z,3.42
2023-04-22T13:26:09.270Z,3.65
2023-04-22T13:28:36.449Z,3.67
2023-04-22T13:31:03.718Z,3.50
2023-04-22T13:33:30.982Z,2.97
2023-04-22T13:35:57.966Z,3.22
2023-04-22T13:38:25.120Z,3.17
2023-04-22T13:40:51.976Z,3.28
2023-04-22T13:43:18.945Z,3.42
2023-04-22T13:45:48.254Z,3.40
2023-04-22T13:48:16.025Z,3.30
2023-04-22T13:50:43.333Z,3.05
2023-04-22T13:53:11.776Z,2.90
2023-04-22T13:55:39.472Z,2.70
2023-04-22T13:58:07.525Z,3.10
2023-04-22T14:00:35.414Z,3.63
2023-04-22T14:03:02.971Z,3.30
2023-04-22T14:05:33.026Z,3.22
2023-04-22T14:08:01.113Z,4.03
2023-04-22T14:10:28.799Z,4.05
2023-04-22T14:12:56.079Z,3.75
2023-04-22T14:15:24.651Z,3.15
2023-04-22T14:17:51.624Z,3.63
2023-04-22T14:20:18.726Z,2.90
2023-04-22T14:22:46.402Z,3.30
2023-04-22T14:25:13.573Z,3.83
2023-04-22T14:27:40.788Z,3.67
2023-04-22T14:30:08.617Z,3.40
2023-04-22T14:32:36.474Z,5.07
2023-04-22T14:35:06.141Z,3.53
2023-04-22T14:37:35.986Z,3.85
2023-04-22T14:40:04.312Z,3.63
2023-04-22T14:42:31.240Z,3.63
2023-04-22T14:44:58.312Z,3.42
2023-04-22T14:47:25.531Z,3.53
2023-04-22T14:49:52.508Z,4.28
2023-04-22T14:52:19.634Z,4.40
2023-04-22T14:54:47.676Z,4.38
2023-04-22T14:57:15.446Z,2.92
2023-04-22T14:59:42.640Z,3.47
2023-04-22T15:02:17.121Z,2.95
2023-04-22T15:04:44.493Z,3.30
2023-04-22T15:07:11.433Z,3.03
2023-04-22T15:09:38.903Z,3.28
2023-04-22T15:12:06.358Z,3.17
2023-04-22T15:14:35.693Z,3.38
2023-04-22T15:17:04.623Z,3.55
2023-04-22T15:19:32.018Z,3.97
2023-04-22T15:21:58.891Z,3.90
2023-04-22T15:24:25.817Z,3.25
2023-04-22T15:26:53.952Z,3.45
2023-04-22T15:29:21.347Z,3.17
2023-04-22T15:31:48.318Z,2.90
2023-04-22T15:34:15.441Z,3.80
2023-04-22T15:36:45.919Z,3.35
2023-04-22T15:39:14.094Z,3.88
2023-04-22T15:41:43.351Z,3.60
2023-04-22T15:44:12.794Z,3.95
2023-04-22T15:46:40.165Z,4.10
2023-04-22T15:49:07.122Z,3.47
2023-04-22T15:51:34.023Z,3.15
2023-04-22T15:54:01.133Z,3.17
2023-04-22T15:56:29.451Z,3.30
2023-04-22T15:58:56.642Z,4.40
2023-04-22T16:01:23.730Z,3.65
2023-04-22T16:03:51.154Z,3.70
2023-04-22T16:06:19.728Z,3.90
2023-04-22T16:08:46.946Z,3.95
2023-04-22T16:11:15.697Z,3.45
2023-04-22T16:13:43.196Z,3.88
2023-04-22T16:16:11.063Z,3.35
2023-04-22T16:18:38.590Z,4.05
2023-04-22T16:21:06.488Z,3.50
2023-04-22T16:23:34.477Z,4.13
2023-04-22T16:26:02.792Z,3.70
2023-04-22T16:28:29.708Z,4.05
2023-04-22T16:30:56.636Z,4.88
2023-04-22T16:33:25.202Z,5.40
2023-04-22T16:35:52.108Z,4.47
2023-04-22T16:38:19.247Z,4.63
2023-04-22T16:40:46.339Z,4.40
2023-04-22T16:43:13.293Z,4.85
2023-04-22T16:45:40.636Z,4.70
2023-04-22T16:48:07.538Z,5.25
2023-04-22T16:50:34.513Z,4.95
2023-04-22T16:53:01.708Z,4.55
2023-04-22T16:55:28.608Z,4.53
2023-04-22T16:57:55.532Z,4.60
2023-04-22T17:00:24.138Z,4.60
2023-04-22T17:02:51.513Z,4.78
2023-04-22T17:05:18.716Z,4.32
2023-04-22T17:07:45.877Z,4.95
2023-04-22T17:10:12.865Z,4.80
2023-04-22T17:12:40.008Z,6.82
2023-04-22T17:15:07.818Z,6.30
2023-04-22T17:17:34.760Z,4.95
2023-04-22T17:20:02.526Z,4.55
2023-04-22T17:22:29.535Z,4.97
2023-04-22T17:24:58.698Z,4.22
2023-04-22T17:27:25.775Z,4.55
2023-04-22T17:29:52.716Z,4.28
2023-04-22T17:32:19.937Z,4.07
2023-04-22T17:34:46.931Z,4.40
2023-04-22T17:37:13.838Z,4.40
2023-04-22T17:39:41.909Z,4.32
2023-04-22T17:42:09.003Z,4.55
2023-04-22T17:44:36.338Z,3.88
2023-04-22T17:47:05.190Z,4.20
2023-04-22T17:49:33.601Z,4.40
2023-04-22T17:52:00.812Z,4.45
2023-04-22T17:54:27.853Z,4.28
2023-04-22T17:56:54.774Z,4.00
2023-04-22T17:59:21.758Z,3.53
2023-04-22T18:01:48.711Z,4.38
2023-04-22T18:04:15.727Z,4.32
2023-04-22T18:06:42.811Z,4.85
2023-04-22T18:09:09.752Z,4.75
2023-04-22T18:11:36.845Z,4.65
2023-04-22T18:14:04.163Z,6.25
2023-04-22T18:16:31.293Z,6.07
2023-04-22T18:18:59.828Z,6.30
2023-04-22T18:21:29.006Z,6.10
2023-04-22T18:23:56.373Z,6.25
2023-04-22T18:26:23.304Z,6.07
2023-04-22T18:28:50.708Z,7.00
2023-04-22T18:31:17.793Z,5.90
2023-04-22T18:33:44.783Z,5.85
2023-04-22T18:36:11.817Z,5.43
2023-04-22T18:38:39.296Z,6.05
2023-04-22T18:41:06.849Z,6.13
2023-04-22T18:43:34.275Z,6.00
2023-04-22T18:46:01.647Z,6.93
2023-04-22T18:48:29.234Z,6.43
2023-04-22T18:50:56.838Z,6.63
2023-04-22T18:53:24.242Z,5.82
2023-04-22T18:55:51.706Z,5.60
2023-04-22T18:58:21.553Z,6.53
2023-04-22T19:00:49.819Z,7.65
2023-04-22T19:03:17.477Z,7.45
2023-04-22T19:05:45.108Z,7.80
2023-04-22T19:08:12.641Z,8.48
2023-04-22T19:10:40.153Z,9.25
2023-04-22T19:13:13.393Z,9.48
2023-04-22T19:15:46.323Z,8.73
2023-04-22T19:18:13.833Z,7.93
2023-04-22T19:20:41.404Z,7.78
2023-04-22T19:23:08.939Z,8.15
2023-04-22T19:25:37.837Z,7.50
2023-04-22T19:28:04.885Z,7.93
2023-04-22T19:30:32.605Z,8.00
2023-04-22T19:33:00.109Z,8.55
2023-04-22T19:35:27.736Z,7.85
2023-04-22T19:37:55.116Z,8.32
2023-04-22T19:40:22.446Z,8.02
2023-04-22T19:42:49.814Z,7.95
2023-04-22T19:45:17.193Z,8.02
2023-04-22T19:47:45.251Z,7.45
2023-04-22T19:50:13.193Z,7.93
2023-04-22T19:52:42.056Z,8.63
2023-04-22T19:55:11.815Z,7.20
2023-04-22T19:57:42.058Z,9.48
2023-04-22T20:00:14.233Z,7.95
2023-04-22T20:02:42.793Z,8.00
2023-04-22T20:05:10.777Z,8.95
2023-04-22T20:07:42.629Z,8.48
2023-04-22T20:10:10.573Z,8.23
2023-04-22T20:12:38.180Z,8.55
2023-04-22T20:15:06.565Z,8.82
2023-04-22T20:17:38.601Z,9.15
2023-04-22T20:20:08.306Z,8.70
2023-04-22T20:22:36.267Z,8.55
2023-04-22T20:25:07.493Z,8.90
2023-04-22T20:27:36.890Z,8.93
2023-04-22T20:30:05.647Z,8.90
2023-04-22T20:32:33.157Z,8.73
2023-04-22T20:35:01.202Z,8.95
2023-04-22T20:37:28.618Z,9.15
2023-04-22T20:39:57.229Z,8.85
2023-04-22T20:42:25.512Z,9.48
2023-04-22T20:44:52.888Z,9.30
2023-04-22T20:47:20.692Z,8.70
2023-04-22T20:49:48.065Z,8.40
2023-04-22T20:52:15.719Z,9.38
2023-04-22T20:54:43.462Z,9.48
2023-04-22T20:57:10.921Z,9.13
2023-04-22T20:59:38.423Z,8.35
2023-04-22T21:02:07.376Z,9.23
2023-04-22T21:04:35.634Z,10.02
2023-04-22T21:07:06.607Z,9.95
2023-04-22T21:09:34.619Z,10.55
2023-04-22T21:12:02.373Z,10.88
2023-04-22T21:14:30.246Z,10.52
2023-04-22T21:17:13.483Z,9.30
2023-04-22T21:19:48.302Z,10.00
2023-04-22T21:22:19.456Z,8.88
2023-04-22T21:24:49.416Z,10.07
2023-04-22T21:27:21.666Z,9.57
2023-04-22T21:29:49.656Z,9.38
2023-04-22T21:32:20.089Z,9.25
2023-04-22T21:34:47.680Z,9.48
2023-04-22T21:37:15.782Z,9.70
2023-04-22T21:39:43.424Z,9.65
2023-04-22T21:42:11.456Z,9.65
2023-04-22T21:44:39.085Z,9.88
2023-04-22T21:47:06.880Z,10.38
2023-04-22T21:49:34.343Z,10.18
2023-04-22T21:52:01.702Z,9.40
2023-04-22T21:54:29.222Z,9.57
2023-04-22T21:56:57.680Z,9.85
2023-04-22T21:59:25.179Z,9.65
2023-04-22T22:01:52.940Z,9.20
2023-04-22T22:04:20.953Z,9.90
2023-04-22T22:06:48.988Z,9.75
2023-04-22T22:09:16.661Z,10.52
2023-04-22T22:11:43.999Z,9.25
2023-04-22T22:14:11.412Z,8.52
2023-04-22T22:16:39.259Z,9.25
2023-04-22T22:19:06.681Z,8.70
2023-04-22T22:21:34.147Z,8.70
2023-04-22T22:24:01.487Z,9.00
2023-04-22T22:26:29.568Z,9.10
2023-04-22T22:28:56.957Z,8.50
2023-04-22T22:31:24.354Z,8.43
2023-04-22T22:33:51.718Z,8.45
2023-04-22T22:36:19.732Z,7.78
2023-04-22T22:38:47.012Z,8.40
2023-04-22T22:41:14.290Z,7.97
2023-04-22T22:43:41.584Z,8.40
2023-04-22T22:46:09.027Z,7.38
2023-04-22T22:48:36.811Z,7.68
2023-04-22T22:51:04.177Z,7.47
2023-04-22T22:53:33.110Z,7.40
2023-04-22T22:56:00.629Z,7.88
2023-04-22T22:58:27.980Z,7.30
2023-04-22T23:00:56.097Z,7.40
2023-04-22T23:03:23.800Z,7.03
2023-04-22T23:05:51.174Z,7.03
2023-04-22T23:08:18.536Z,6.78
2023-04-22T23:10:45.908Z,6.57
2023-04-22T23:13:13.247Z,6.70
2023-04-22T23:15:40.851Z,6.30
2023-04-22T23:18:09.098Z,6.50
2023-04-22T23:20:37.201Z,6.18
2023-04-22T23:23:04.664Z,6.35
2023-04-22T23:25:32.326Z,6.50
2023-04-22T23:28:00.677Z,7.20
2023-04-22T23:30:28.388Z,6.65
2023-04-22T23:33:01.965Z,5.43
2023-04-22T23:35:30.069Z,5.97
2023-04-22T23:37:58.856Z,6.25
2023-04-22T23:40:26.271Z,6.18
2023-04-22T23:42:54.178Z,6.03
2023-04-22T23:45:21.535Z,5.93
2023-04-22T23:47:49.122Z,5.80
2023-04-22T23:50:18.956Z,5.70
2023-04-22T23:52:46.720Z,6.15
2023-04-22T23:55:15.920Z,5.53
2023-04-22T23:57:43.627Z,5.70
